createdAt,value
2023-04-09T00:00:35.418Z,0.00
2023-04-09T00:01:35.356Z,0.00
2023-04-09T00:02:35.299Z,0.00
2023-04-09T00:03:35.283Z,0.00
2023-04-09T00:04:35.121Z,0.00
2023-04-09T00:05:34.995Z,0.00
2023-04-09T00:06:34.914Z,0.00
2023-04-09T00:07:34.836Z,0.00
2023-04-09T00:08:34.750Z,0.00
2023-04-09T00:09:34.672Z,0.00
2023-04-09T00:10:34.582Z,0.00
2023-04-09T00:11:34.495Z,0.00
2023-04-09T00:12:34.427Z,0.00
2023-04-09T00:13:39.006Z,0.00
2023-04-09T00:14:34.263Z,0.00
2023-04-09T00:15:34.166Z,0.00
2023-04-09T00:16:34.105Z,0.00
2023-04-09T00:17:34.021Z,0.00
2023-04-09T00:18:33.917Z,0.00
2023-04-09T00:19:33.838Z,0.00
2023-04-09T00:20:33.750Z,0.00
2023-04-09T00:21:33.663Z,0.00
2023-04-09T00:22:33.588Z,0.00
2023-04-09T00:23:33.507Z,0.00
2023-04-09T00:24:33.425Z,0.00
2023-04-09T00:25:33.329Z,0.00
2023-04-09T00:26:33.263Z,0.00
2023-04-09T00:27:33.167Z,0.00
2023-04-09T00:28:33.094Z,0.00
2023-04-09T00:29:33.010Z,0.00
2023-04-09T00:30:32.922Z,0.00
2023-04-09T00:31:32.849Z,0.00
2023-04-09T00:32:32.778Z,0.00
2023-04-09T00:33:32.691Z,0.00
2023-04-09T00:34:32.587Z,0.00
2023-04-09T00:35:32.534Z,0.00
2023-04-09T00:36:32.422Z,0.00
2023-04-09T00:37:32.341Z,0.00
2023-04-09T00:38:32.268Z,0.00
2023-04-09T00:39:32.174Z,0.00
2023-04-09T00:40:32.093Z,0.00
2023-04-09T00:41:32.001Z,0.00
2023-04-09T00:42:31.921Z,0.00
2023-04-09T00:43:31.829Z,0.00
2023-04-09T00:44:31.758Z,0.00
2023-04-09T00:45:31.686Z,0.00
2023-04-09T00:46:31.584Z,0.00
2023-04-09T00:47:31.561Z,0.00
2023-04-09T00:48:31.413Z,0.00
2023-04-09T00:49:31.343Z,0.00
2023-04-09T00:50:31.273Z,0.00
2023-04-09T00:51:31.170Z,0.00
2023-04-09T00:52:31.093Z,0.00
2023-04-09T00:53:30.999Z,0.00
2023-04-09T00:54:30.925Z,0.00
2023-04-09T00:55:30.833Z,0.00
2023-04-09T00:56:30.748Z,0.00
2023-04-09T00:57:30.668Z,0.00
2023-04-09T00:58:30.583Z,0.00
2023-04-09T00:59:30.512Z,0.00
2023-04-09T01:00:30.423Z,0.00
2023-04-09T01:01:30.526Z,0.00
2023-04-09T01:02:30.373Z,0.00
2023-04-09T01:03:30.265Z,0.00
2023-04-09T01:04:30.083Z,0.00
2023-04-09T01:05:29.996Z,0.00
2023-04-09T01:06:29.913Z,0.00
2023-04-09T01:07:29.839Z,0.00
2023-04-09T01:08:29.766Z,0.00
2023-04-09T01:09:29.662Z,0.00
2023-04-09T01:10:29.583Z,0.00
2023-04-09T01:11:29.499Z,0.00
2023-04-09T01:12:29.415Z,0.00
2023-04-09T01:13:29.326Z,0.00
2023-04-09T01:14:29.249Z,0.00
2023-04-09T01:15:29.163Z,0.00
2023-04-09T01:16:29.165Z,0.00
2023-04-09T01:17:29.037Z,0.00
2023-04-09T01:18:28.918Z,0.00
2023-04-09T01:19:28.829Z,0.00
2023-04-09T01:20:28.743Z,0.00
2023-04-09T01:21:28.671Z,0.00
2023-04-09T01:22:28.587Z,0.00
2023-04-09T01:23:28.505Z,0.00
2023-04-09T01:24:28.416Z,0.00
2023-04-09T01:25:28.327Z,0.00
2023-04-09T01:26:28.247Z,0.00
2023-04-09T01:27:28.160Z,0.00
2023-04-09T01:28:28.077Z,0.00
2023-04-09T01:29:27.993Z,0.00
2023-04-09T01:30:27.955Z,0.00
2023-04-09T01:31:27.834Z,0.00
2023-04-09T01:32:27.778Z,0.00
2023-04-09T01:33:27.660Z,0.00
2023-04-09T01:34:27.601Z,0.00
2023-04-09T01:35:27.494Z,0.00
2023-04-09T01:36:27.413Z,0.00
2023-04-09T01:37:27.328Z,0.00
2023-04-09T01:38:27.241Z,0.00
2023-04-09T01:39:27.172Z,0.00
2023-04-09T01:40:27.077Z,0.00
2023-04-09T01:41:26.992Z,0.00
2023-04-09T01:42:26.911Z,0.00
2023-04-09T01:43:26.831Z,0.00
2023-04-09T01:44:26.746Z,0.00
2023-04-09T01:45:26.660Z,0.00
2023-04-09T01:46:26.604Z,0.00
2023-04-09T01:47:26.542Z,0.00
2023-04-09T01:48:26.422Z,0.00
2023-04-09T01:49:26.332Z,0.00
2023-04-09T01:50:26.249Z,0.00
2023-04-09T01:51:26.159Z,0.00
2023-04-09T01:52:26.086Z,0.00
2023-04-09T01:53:25.992Z,0.00
2023-04-09T01:54:25.923Z,0.00
2023-04-09T01:55:25.829Z,0.00
2023-04-09T01:56:25.745Z,0.00
2023-04-09T01:57:25.659Z,0.00
2023-04-09T01:58:25.583Z,0.00
2023-04-09T01:59:25.508Z,0.00
2023-04-09T02:00:25.420Z,0.00
2023-04-09T02:01:25.385Z,0.00
2023-04-09T02:02:25.327Z,0.00
2023-04-09T02:03:25.211Z,0.00
2023-04-09T02:04:25.077Z,0.00
2023-04-09T02:05:24.994Z,0.00
2023-04-09T02:06:24.908Z,0.00
2023-04-09T02:07:24.822Z,0.00
2023-04-09T02:08:24.741Z,0.00
2023-04-09T02:09:24.664Z,0.00
2023-04-09T02:10:24.574Z,0.00
2023-04-09T02:11:24.490Z,0.00
2023-04-09T02:12:24.405Z,0.00
2023-04-09T02:13:24.325Z,0.00
2023-04-09T02:14:24.245Z,0.00
2023-04-09T02:15:24.159Z,0.00
2023-04-09T02:16:24.073Z,0.00
2023-04-09T02:17:24.009Z,0.00
2023-04-09T02:18:23.908Z,0.00
2023-04-09T02:19:23.819Z,0.00
2023-04-09T02:20:23.755Z,0.00
2023-04-09T02:21:23.653Z,0.00
2023-04-09T02:22:23.572Z,0.00
2023-04-09T02:23:23.498Z,0.00
2023-04-09T02:24:23.407Z,0.00
2023-04-09T02:25:23.321Z,0.00
2023-04-09T02:26:23.240Z,0.00
2023-04-09T02:27:23.278Z,0.00
2023-04-09T02:28:23.085Z,0.00
2023-04-09T02:29:22.990Z,0.00
2023-04-09T02:30:22.907Z,0.00
2023-04-09T02:31:22.867Z,0.00
2023-04-09T02:32:22.814Z,0.00
2023-04-09T02:33:22.648Z,0.00
2023-04-09T02:34:22.571Z,0.00
2023-04-09T02:35:22.493Z,0.00
2023-04-09T02:36:22.402Z,0.00
2023-04-09T02:37:22.319Z,0.00
2023-04-09T02:38:22.236Z,0.00
2023-04-09T02:39:22.174Z,0.00
2023-04-09T02:40:22.072Z,0.00
2023-04-09T02:41:21.989Z,0.00
2023-04-09T02:42:21.903Z,0.00
2023-04-09T02:43:21.818Z,0.00
2023-04-09T02:44:21.732Z,0.00
2023-04-09T02:45:21.646Z,0.00
2023-04-09T02:46:21.582Z,0.00
2023-04-09T02:47:21.490Z,0.00
2023-04-09T02:48:21.397Z,0.00
2023-04-09T02:49:21.312Z,0.00
2023-04-09T02:50:21.306Z,0.00
2023-04-09T02:51:21.149Z,0.00
2023-04-09T02:52:21.067Z,0.00
2023-04-09T02:53:20.979Z,0.00
2023-04-09T02:54:20.900Z,0.00
2023-04-09T02:55:20.813Z,0.00
2023-04-09T02:56:20.734Z,0.00
2023-04-09T02:57:20.641Z,0.00
2023-04-09T02:58:20.567Z,0.00
2023-04-09T02:59:20.485Z,0.00
2023-04-09T03:00:20.398Z,0.00
2023-04-09T03:01:20.365Z,0.00
2023-04-09T03:02:20.315Z,0.00
2023-04-09T03:03:20.309Z,0.00
2023-04-09T03:04:20.132Z,0.00
2023-04-09T03:05:19.980Z,0.00
2023-04-09T03:06:19.904Z,0.00
2023-04-09T03:07:19.827Z,0.00
2023-04-09T03:08:19.740Z,0.00
2023-04-09T03:09:19.643Z,0.00
2023-04-09T03:10:19.562Z,0.00
2023-04-09T03:11:19.473Z,0.00
2023-04-09T03:12:19.394Z,0.00
2023-04-09T03:13:19.305Z,0.00
2023-04-09T03:14:19.221Z,0.00
2023-04-09T03:15:19.154Z,0.00
2023-04-09T03:16:19.147Z,0.00
2023-04-09T03:17:18.972Z,0.00
2023-04-09T03:18:18.887Z,0.00
2023-04-09T03:19:18.806Z,0.00
2023-04-09T03:20:18.723Z,0.00
2023-04-09T03:21:18.635Z,0.00
2023-04-09T03:22:18.556Z,0.00
2023-04-09T03:23:18.469Z,0.00
2023-04-09T03:24:18.384Z,0.00
2023-04-09T03:25:18.299Z,0.00
2023-04-09T03:26:18.220Z,0.00
2023-04-09T03:27:18.132Z,0.00
2023-04-09T03:28:18.055Z,0.00
2023-04-09T03:29:17.960Z,0.00
2023-04-09T03:30:17.876Z,0.00
2023-04-09T03:31:17.835Z,0.00
2023-04-09T03:32:19.076Z,0.00
2023-04-09T03:33:17.627Z,0.00
2023-04-09T03:34:17.540Z,0.00
2023-04-09T03:35:17.465Z,0.00
2023-04-09T03:36:17.375Z,0.00
2023-04-09T03:37:17.289Z,0.00
2023-04-09T03:38:17.213Z,0.00
2023-04-09T03:39:17.124Z,0.00
2023-04-09T03:40:17.051Z,0.00
2023-04-09T03:41:16.957Z,0.00
2023-04-09T03:42:16.871Z,0.00
2023-04-09T03:43:16.792Z,0.00
2023-04-09T03:44:16.706Z,0.00
2023-04-09T03:45:16.617Z,0.00
2023-04-09T03:46:16.563Z,0.00
2023-04-09T03:47:16.454Z,0.00
2023-04-09T03:48:16.366Z,0.00
2023-04-09T03:49:16.282Z,0.00
2023-04-09T03:50:16.198Z,0.00
2023-04-09T03:51:16.114Z,0.00
2023-04-09T03:52:16.028Z,0.00
2023-04-09T03:53:15.945Z,0.00
2023-04-09T03:54:15.858Z,0.00
2023-04-09T03:55:15.786Z,0.00
2023-04-09T03:56:15.687Z,0.00
2023-04-09T03:57:15.601Z,0.00
2023-04-09T03:58:15.522Z,0.00
2023-04-09T03:59:15.433Z,0.00
2023-04-09T04:00:15.348Z,0.00
2023-04-09T04:01:15.265Z,0.00
2023-04-09T04:02:15.247Z,0.00
2023-04-09T04:03:15.219Z,0.00
2023-04-09T04:04:15.168Z,0.00
2023-04-09T04:05:14.932Z,0.00
2023-04-09T04:06:14.839Z,0.00
2023-04-09T04:07:14.771Z,0.00
2023-04-09T04:08:14.669Z,0.00
2023-04-09T04:09:14.587Z,0.00
2023-04-09T04:10:14.506Z,0.00
2023-04-09T04:11:14.441Z,0.00
2023-04-09T04:12:14.339Z,0.00
2023-04-09T04:13:14.279Z,0.00
2023-04-09T04:14:14.164Z,0.00
2023-04-09T04:15:14.088Z,0.00
2023-04-09T04:16:14.017Z,0.00
2023-04-09T04:17:13.925Z,0.00
2023-04-09T04:18:13.824Z,4.00
2023-04-09T04:19:13.747Z,0.00
2023-04-09T04:20:13.663Z,0.00
2023-04-09T04:21:13.572Z,0.00
2023-04-09T04:22:13.484Z,4.00
2023-04-09T04:23:13.427Z,0.00
2023-04-09T04:24:13.320Z,4.00
2023-04-09T04:25:13.236Z,0.00
2023-04-09T04:26:13.148Z,0.00
2023-04-09T04:27:13.076Z,4.00
2023-04-09T04:28:12.986Z,4.00
2023-04-09T04:29:12.900Z,4.00
2023-04-09T04:30:12.815Z,4.00
2023-04-09T04:31:12.783Z,4.00
2023-04-09T04:32:12.643Z,4.00
2023-04-09T04:33:12.559Z,4.00
2023-04-09T04:34:12.477Z,8.00
2023-04-09T04:35:12.399Z,8.00
2023-04-09T04:36:12.305Z,12.00
2023-04-09T04:37:12.226Z,12.00
2023-04-09T04:38:12.144Z,12.00
2023-04-09T04:39:12.055Z,16.00
2023-04-09T04:40:11.967Z,16.00
2023-04-09T04:41:11.891Z,16.00
2023-04-09T04:42:11.803Z,16.00
2023-04-09T04:43:11.714Z,20.00
2023-04-09T04:44:11.632Z,20.00
2023-04-09T04:45:11.547Z,20.00
2023-04-09T04:46:11.497Z,24.00
2023-04-09T04:47:11.383Z,24.00
2023-04-09T04:48:11.293Z,28.00
2023-04-09T04:49:11.207Z,28.00
2023-04-09T04:50:11.122Z,32.00
2023-04-09T04:51:11.075Z,36.00
2023-04-09T04:52:10.953Z,36.00
2023-04-09T04:53:10.866Z,40.00
2023-04-09T04:54:10.781Z,40.00
2023-04-09T04:55:10.702Z,48.00
2023-04-09T04:56:10.617Z,48.00
2023-04-09T04:57:10.537Z,52.00
2023-04-09T04:58:10.443Z,52.00
2023-04-09T04:59:10.361Z,56.00
2023-04-09T05:00:10.278Z,56.00
2023-04-09T05:01:10.228Z,60.00
2023-04-09T05:02:10.219Z,64.00
2023-04-09T05:03:10.133Z,68.00
2023-04-09T05:04:09.934Z,72.00
2023-04-09T05:05:09.852Z,72.00
2023-04-09T05:06:09.765Z,76.00
2023-04-09T05:07:09.711Z,76.00
2023-04-09T05:08:09.600Z,84.00
2023-04-09T05:09:10.048Z,84.00
2023-04-09T05:10:09.425Z,88.00
2023-04-09T05:11:09.344Z,96.00
2023-04-09T05:12:09.261Z,92.00
2023-04-09T05:13:09.168Z,96.00
2023-04-09T05:14:09.087Z,104.00
2023-04-09T05:15:09.007Z,108.00
2023-04-09T05:16:08.947Z,112.00
2023-04-09T05:17:08.832Z,120.00
2023-04-09T05:18:08.750Z,120.00
2023-04-09T05:19:08.667Z,128.00
2023-04-09T05:20:08.589Z,132.00
2023-04-09T05:21:08.493Z,136.00
2023-04-09T05:22:08.405Z,136.00
2023-04-09T05:23:08.323Z,144.00
2023-04-09T05:24:08.237Z,148.00
2023-04-09T05:25:08.153Z,152.00
2023-04-09T05:26:08.071Z,148.00
2023-04-09T05:27:07.988Z,156.00
2023-04-09T05:28:07.897Z,152.00
2023-04-09T05:29:07.815Z,156.00
2023-04-09T05:30:07.743Z,164.00
2023-04-09T05:31:07.754Z,168.00
2023-04-09T05:32:07.561Z,172.00
2023-04-09T05:33:07.479Z,176.00
2023-04-09T05:34:07.394Z,188.00
2023-04-09T05:35:07.306Z,188.00
2023-04-09T05:36:07.241Z,188.00
2023-04-09T05:37:07.137Z,192.00
2023-04-09T05:38:07.056Z,196.00
2023-04-09T05:39:06.987Z,196.00
2023-04-09T05:40:06.888Z,196.00
2023-04-09T05:41:06.804Z,200.00
2023-04-09T05:42:06.742Z,200.00
2023-04-09T05:43:06.637Z,204.00
2023-04-09T05:44:06.545Z,212.00
2023-04-09T05:45:06.456Z,216.00
2023-04-09T05:46:06.403Z,224.00
2023-04-09T05:47:06.299Z,228.00
2023-04-09T05:48:06.200Z,232.00
2023-04-09T05:49:06.119Z,232.00
2023-04-09T05:50:06.062Z,236.00
2023-04-09T05:51:05.949Z,236.00
2023-04-09T05:52:05.873Z,244.00
2023-04-09T05:53:05.780Z,244.00
2023-04-09T05:54:05.697Z,252.00
2023-04-09T05:55:05.614Z,248.00
2023-04-09T05:56:05.522Z,248.00
2023-04-09T05:57:05.445Z,248.00
2023-04-09T05:58:05.369Z,256.00
2023-04-09T05:59:05.266Z,264.00
2023-04-09T06:00:05.193Z,264.00
2023-04-09T06:01:05.098Z,268.00
2023-04-09T06:02:05.145Z,276.00
2023-04-09T06:03:05.037Z,288.00
2023-04-09T06:04:05.261Z,292.00
2023-04-09T06:05:04.782Z,308.00
2023-04-09T06:06:04.673Z,312.00
2023-04-09T06:07:04.593Z,332.00
2023-04-09T06:08:04.508Z,356.00
2023-04-09T06:09:04.421Z,368.00
2023-04-09T06:10:04.342Z,352.00
2023-04-09T06:11:04.254Z,328.00
2023-04-09T06:12:04.174Z,340.00
2023-04-09T06:13:04.085Z,332.00
2023-04-09T06:14:03.997Z,328.00
2023-04-09T06:15:03.948Z,348.00
2023-04-09T06:16:03.853Z,352.00
2023-04-09T06:17:03.752Z,356.00
2023-04-09T06:18:03.711Z,364.00
2023-04-09T06:19:03.574Z,352.00
2023-04-09T06:20:03.482Z,352.00
2023-04-09T06:21:03.403Z,348.00
2023-04-09T06:22:03.319Z,344.00
2023-04-09T06:23:03.228Z,352.00
2023-04-09T06:24:03.145Z,344.00
2023-04-09T06:25:03.063Z,344.00
2023-04-09T06:26:02.974Z,336.00
2023-04-09T06:27:02.896Z,344.00
2023-04-09T06:28:02.846Z,348.00
2023-04-09T06:29:02.725Z,348.00
2023-04-09T06:30:02.642Z,352.00
2023-04-09T06:31:02.574Z,356.00
2023-04-09T06:32:02.466Z,356.00
2023-04-09T06:33:02.495Z,360.00
2023-04-09T06:34:02.292Z,364.00
2023-04-09T06:35:02.233Z,364.00
2023-04-09T06:36:02.157Z,368.00
2023-04-09T06:37:02.046Z,372.00
2023-04-09T06:38:01.962Z,372.00
2023-04-09T06:39:01.876Z,380.00
2023-04-09T06:40:01.845Z,384.00
2023-04-09T06:41:01.720Z,392.00
2023-04-09T06:42:01.619Z,396.00
2023-04-09T06:43:01.592Z,400.00
2023-04-09T06:44:01.452Z,404.00
2023-04-09T06:45:01.366Z,408.00
2023-04-09T06:46:01.315Z,416.00
2023-04-09T06:47:01.200Z,424.00
2023-04-09T06:48:01.172Z,432.00
2023-04-09T06:49:01.034Z,440.00
2023-04-09T06:50:00.945Z,444.00
2023-04-09T06:51:00.863Z,448.00
2023-04-09T06:52:00.772Z,460.00
2023-04-09T06:53:00.688Z,460.00
2023-04-09T06:54:00.700Z,472.00
2023-04-09T06:55:00.535Z,480.00
2023-04-09T06:56:00.472Z,484.00
2023-04-09T06:57:00.363Z,492.00
2023-04-09T06:58:00.272Z,500.00
2023-04-09T06:59:00.190Z,508.00
2023-04-09T07:00:00.110Z,516.00
2023-04-09T07:01:00.077Z,528.00
2023-04-09T07:02:00.012Z,536.00
2023-04-09T07:02:59.939Z,544.00
2023-04-09T07:03:59.941Z,556.00
2023-04-09T07:04:59.679Z,560.00
2023-04-09T07:05:59.592Z,568.00
2023-04-09T07:06:59.509Z,580.00
2023-04-09T07:07:59.429Z,588.00
2023-04-09T07:08:59.345Z,604.00
2023-04-09T07:09:59.264Z,616.00
2023-04-09T07:10:59.176Z,632.00
2023-04-09T07:11:59.093Z,644.00
2023-04-09T07:12:59.004Z,660.00
2023-04-09T07:13:58.936Z,676.00
2023-04-09T07:14:58.841Z,692.00
2023-04-09T07:15:58.781Z,716.00
2023-04-09T07:16:58.666Z,736.00
2023-04-09T07:17:58.713Z,756.00
2023-04-09T07:18:58.499Z,784.00
2023-04-09T07:19:58.443Z,812.00
2023-04-09T07:20:59.275Z,836.00
2023-04-09T07:21:58.252Z,864.00
2023-04-09T07:22:58.173Z,904.00
2023-04-09T07:23:58.084Z,944.00
2023-04-09T07:24:58.000Z,980.00
2023-04-09T07:25:57.928Z,1028.00
2023-04-09T07:26:57.833Z,1080.00
2023-04-09T07:27:57.753Z,1124.00
2023-04-09T07:28:57.673Z,1164.00
2023-04-09T07:29:57.836Z,1224.00
2023-04-09T07:30:57.502Z,1268.00
2023-04-09T07:31:57.423Z,1304.00
2023-04-09T07:32:57.356Z,1356.00
2023-04-09T07:33:57.254Z,1392.00
2023-04-09T07:34:57.165Z,1428.00
2023-04-09T07:35:57.117Z,1452.00
2023-04-09T07:36:56.997Z,1480.00
2023-04-09T07:37:56.918Z,1516.00
2023-04-09T07:38:56.838Z,1532.00
2023-04-09T07:39:56.758Z,1552.00
2023-04-09T07:40:56.674Z,1588.00
2023-04-09T07:41:58.212Z,1612.00
2023-04-09T07:42:56.507Z,1636.00
2023-04-09T07:43:56.415Z,1644.00
2023-04-09T07:44:56.329Z,1680.00
2023-04-09T07:45:56.249Z,1712.00
2023-04-09T07:46:56.209Z,1720.00
2023-04-09T07:47:56.107Z,1752.00
2023-04-09T07:48:56.000Z,1780.00
2023-04-09T07:49:55.925Z,1816.00
2023-04-09T07:50:55.833Z,1864.00
2023-04-09T07:51:55.761Z,1888.00
2023-04-09T07:52:55.669Z,1920.00
2023-04-09T07:53:55.589Z,1944.00
2023-04-09T07:54:55.505Z,1960.00
2023-04-09T07:55:55.427Z,2000.00
2023-04-09T07:56:55.343Z,2032.00
2023-04-09T07:57:55.262Z,2052.00
2023-04-09T07:58:55.250Z,2076.00
2023-04-09T07:59:55.097Z,2100.00
2023-04-09T08:00:55.016Z,2132.00
2023-04-09T08:01:55.002Z,2152.00
2023-04-09T08:02:55.159Z,2172.00
2023-04-09T08:03:54.880Z,2200.00
2023-04-09T08:04:54.806Z,2216.00
2023-04-09T08:05:54.609Z,2252.00
2023-04-09T08:06:54.520Z,2296.00
2023-04-09T08:07:54.483Z,2316.00
2023-04-09T08:08:54.629Z,2328.00
2023-04-09T08:09:54.279Z,2352.00
2023-04-09T08:10:54.196Z,2360.00
2023-04-09T08:11:54.146Z,2400.00
2023-04-09T08:12:54.062Z,2428.00
2023-04-09T08:13:53.957Z,2456.00
2023-04-09T08:14:53.876Z,2452.00
2023-04-09T08:15:53.791Z,2472.00
2023-04-09T08:16:53.777Z,2484.00
2023-04-09T08:17:53.658Z,2512.00
2023-04-09T08:18:53.698Z,2512.00
2023-04-09T08:19:53.467Z,2536.00
2023-04-09T08:20:53.432Z,2556.00
2023-04-09T08:21:53.313Z,2580.00
2023-04-09T08:22:53.226Z,2580.00
2023-04-09T08:23:53.145Z,2592.00
2023-04-09T08:24:53.067Z,2588.00
2023-04-09T08:25:53.004Z,2580.00
2023-04-09T08:26:52.951Z,2600.00
2023-04-09T08:27:52.824Z,2620.00
2023-04-09T08:28:52.994Z,2620.00
2023-04-09T08:29:52.656Z,2620.00
2023-04-09T08:30:52.577Z,2612.00
2023-04-09T08:31:52.534Z,2620.00
2023-04-09T08:32:52.440Z,2636.00
2023-04-09T08:33:52.337Z,2632.00
2023-04-09T08:34:52.266Z,2628.00
2023-04-09T08:35:52.173Z,2660.00
2023-04-09T08:36:52.158Z,2668.00
2023-04-09T08:37:52.014Z,2628.00
2023-04-09T08:38:52.222Z,2596.00
2023-04-09T08:39:51.850Z,2596.00
2023-04-09T08:40:51.766Z,2640.00
2023-04-09T08:41:51.686Z,2676.00
2023-04-09T08:42:51.606Z,2676.00
2023-04-09T08:43:57.558Z,2644.00
2023-04-09T08:44:51.450Z,2688.00
2023-04-09T08:45:51.378Z,2684.00
2023-04-09T08:46:51.287Z,2692.00
2023-04-09T08:47:51.284Z,2652.00
2023-04-09T08:48:51.277Z,2640.00
2023-04-09T08:49:51.048Z,2648.00
2023-04-09T08:50:50.971Z,2648.00
2023-04-09T08:51:50.885Z,2660.00
2023-04-09T08:52:50.799Z,2560.00
2023-04-09T08:53:50.723Z,2196.00
2023-04-09T08:54:50.673Z,2312.00
2023-04-09T08:55:50.567Z,2636.00
2023-04-09T08:56:50.490Z,2652.00
2023-04-09T08:57:50.405Z,2672.00
2023-04-09T08:58:50.364Z,2680.00
2023-04-09T08:59:50.248Z,2364.00
2023-04-09T09:00:50.171Z,2892.00
2023-04-09T09:01:50.133Z,2800.00
2023-04-09T09:02:50.087Z,1860.00
2023-04-09T09:03:50.014Z,2608.00
2023-04-09T09:04:49.849Z,2408.00
2023-04-09T09:05:49.778Z,1812.00
2023-04-09T09:06:49.688Z,2596.00
2023-04-09T09:07:49.605Z,1496.00
2023-04-09T09:08:49.522Z,1616.00
2023-04-09T09:09:49.441Z,908.00
2023-04-09T09:10:49.364Z,2828.00
2023-04-09T09:11:49.286Z,1428.00
2023-04-09T09:12:49.206Z,2176.00
2023-04-09T09:13:49.126Z,2976.00
2023-04-09T09:14:49.043Z,2916.00
2023-04-09T09:15:48.966Z,2840.00
2023-04-09T09:16:48.895Z,2768.00
2023-04-09T09:17:48.820Z,2740.00
2023-04-09T09:18:48.728Z,2776.00
2023-04-09T09:19:48.648Z,2612.00
2023-04-09T09:20:48.569Z,992.00
2023-04-09T09:21:48.505Z,936.00
2023-04-09T09:22:49.164Z,1296.00
2023-04-09T09:23:48.413Z,2584.00
2023-04-09T09:24:49.806Z,1976.00
2023-04-09T09:25:48.168Z,2020.00
2023-04-09T09:26:48.091Z,1180.00
2023-04-09T09:27:48.015Z,1868.00
2023-04-09T09:28:47.925Z,1780.00
2023-04-09T09:29:47.849Z,3076.00
2023-04-09T09:30:49.168Z,3044.00
2023-04-09T09:31:47.721Z,2672.00
2023-04-09T09:32:47.679Z,3216.00
2023-04-09T09:33:47.549Z,2212.00
2023-04-09T09:34:47.456Z,2996.00
2023-04-09T09:35:47.382Z,3016.00
2023-04-09T09:36:47.308Z,2960.00
2023-04-09T09:37:47.220Z,2972.00
2023-04-09T09:38:47.173Z,2996.00
2023-04-09T09:39:47.067Z,2148.00
2023-04-09T09:40:46.982Z,1624.00
2023-04-09T09:41:46.988Z,1788.00
2023-04-09T09:42:46.819Z,972.00
2023-04-09T09:43:46.754Z,996.00
2023-04-09T09:44:46.671Z,1144.00
2023-04-09T09:45:46.611Z,2804.00
2023-04-09T09:46:46.509Z,1968.00
2023-04-09T09:47:46.473Z,3012.00
2023-04-09T09:48:46.349Z,1080.00
2023-04-09T09:49:46.278Z,1360.00
2023-04-09T09:50:46.208Z,1340.00
2023-04-09T09:51:46.120Z,1592.00
2023-04-09T09:52:46.039Z,3220.00
2023-04-09T09:53:48.380Z,3216.00
2023-04-09T09:54:45.878Z,3184.00
2023-04-09T09:55:45.799Z,3132.00
2023-04-09T09:56:45.716Z,3056.00
2023-04-09T09:57:45.657Z,3036.00
2023-04-09T09:58:45.560Z,2968.00
2023-04-09T09:59:45.484Z,2944.00
2023-04-09T10:00:45.404Z,2724.00
2023-04-09T10:01:45.415Z,2844.00
2023-04-09T10:02:45.387Z,2760.00
2023-04-09T10:03:45.175Z,2704.00
2023-04-09T10:04:45.177Z,2756.00
2023-04-09T10:05:45.006Z,2772.00
2023-04-09T10:06:44.929Z,2784.00
2023-04-09T10:07:44.855Z,2756.00
2023-04-09T10:08:44.776Z,2760.00
2023-04-09T10:09:44.695Z,2656.00
2023-04-09T10:10:44.620Z,2696.00
2023-04-09T10:11:44.534Z,2660.00
2023-04-09T10:12:44.490Z,2600.00
2023-04-09T10:13:44.386Z,2640.00
2023-04-09T10:14:44.293Z,972.00
2023-04-09T10:15:44.270Z,720.00
2023-04-09T10:16:44.137Z,612.00
2023-04-09T10:17:44.102Z,688.00
2023-04-09T10:18:43.990Z,816.00
2023-04-09T10:19:43.914Z,1476.00
2023-04-09T10:20:43.820Z,2220.00
2023-04-09T10:21:43.753Z,2088.00
2023-04-09T10:22:43.668Z,2436.00
2023-04-09T10:23:43.593Z,1836.00
2023-04-09T10:24:43.511Z,1976.00
2023-04-09T10:25:43.448Z,2432.00
2023-04-09T10:26:43.355Z,2176.00
2023-04-09T10:27:43.273Z,624.00
2023-04-09T10:28:43.203Z,572.00
2023-04-09T10:29:43.116Z,528.00
2023-04-09T10:30:43.038Z,552.00
2023-04-09T10:31:43.015Z,584.00
2023-04-09T10:32:42.883Z,596.00
2023-04-09T10:33:42.802Z,676.00
2023-04-09T10:34:42.746Z,696.00
2023-04-09T10:35:42.709Z,700.00
2023-04-09T10:36:42.561Z,756.00
2023-04-09T10:37:42.483Z,656.00
2023-04-09T10:38:42.408Z,808.00
2023-04-09T10:39:42.345Z,844.00
2023-04-09T10:40:42.289Z,996.00
2023-04-09T10:41:42.213Z,840.00
2023-04-09T10:42:42.160Z,2364.00
2023-04-09T10:43:42.026Z,2320.00
2023-04-09T10:44:42.116Z,2428.00
2023-04-09T10:45:41.899Z,1756.00
2023-04-09T10:46:41.804Z,1892.00
2023-04-09T10:47:41.758Z,920.00
2023-04-09T10:48:41.628Z,2236.00
2023-04-09T10:49:41.545Z,956.00
2023-04-09T10:50:41.463Z,1504.00
2023-04-09T10:51:41.384Z,2160.00
2023-04-09T10:52:41.304Z,2948.00
2023-04-09T10:53:41.233Z,1144.00
2023-04-09T10:54:41.147Z,1136.00
2023-04-09T10:55:41.083Z,1344.00
2023-04-09T10:56:40.989Z,1296.00
2023-04-09T10:57:40.917Z,1072.00
2023-04-09T10:58:40.836Z,968.00
2023-04-09T10:59:40.760Z,996.00
2023-04-09T11:00:40.714Z,968.00
2023-04-09T11:01:40.677Z,964.00
2023-04-09T11:02:40.674Z,1012.00
2023-04-09T11:03:40.546Z,1140.00
2023-04-09T11:04:40.391Z,1180.00
2023-04-09T11:05:40.323Z,984.00
2023-04-09T11:06:40.208Z,1024.00
2023-04-09T11:07:40.127Z,1068.00
2023-04-09T11:08:40.060Z,880.00
2023-04-09T11:09:39.988Z,872.00
2023-04-09T11:10:39.892Z,888.00
2023-04-09T11:11:39.813Z,940.00
2023-04-09T11:12:39.729Z,1084.00
2023-04-09T11:13:39.652Z,1288.00
2023-04-09T11:14:39.578Z,1224.00
2023-04-09T11:15:39.502Z,1200.00
2023-04-09T11:16:39.509Z,1060.00
2023-04-09T11:17:39.378Z,1024.00
2023-04-09T11:18:39.262Z,1028.00
2023-04-09T11:19:39.182Z,1048.00
2023-04-09T11:20:39.102Z,1068.00
2023-04-09T11:21:39.021Z,1084.00
2023-04-09T11:22:38.949Z,1088.00
2023-04-09T11:23:38.866Z,1544.00
2023-04-09T11:24:38.800Z,1168.00
2023-04-09T11:25:38.709Z,1252.00
2023-04-09T11:26:38.628Z,2132.00
2023-04-09T11:27:38.581Z,3004.00
2023-04-09T11:28:38.468Z,2804.00
2023-04-09T11:29:38.391Z,2208.00
2023-04-09T11:30:38.313Z,2712.00
2023-04-09T11:31:39.595Z,1584.00
2023-04-09T11:32:38.172Z,2572.00
2023-04-09T11:33:38.071Z,2572.00
2023-04-09T11:34:38.004Z,2592.00
2023-04-09T11:35:37.968Z,2568.00
2023-04-09T11:36:37.839Z,2520.00
2023-04-09T11:37:37.755Z,2376.00
2023-04-09T11:38:37.685Z,2556.00
2023-04-09T11:39:37.623Z,2556.00
2023-04-09T11:40:37.549Z,944.00
2023-04-09T11:41:37.461Z,2608.00
2023-04-09T11:42:37.369Z,2692.00
2023-04-09T11:43:37.290Z,2196.00
2023-04-09T11:44:37.212Z,884.00
2023-04-09T11:45:37.132Z,828.00
2023-04-09T11:46:37.072Z,784.00
2023-04-09T11:47:37.035Z,776.00
2023-04-09T11:48:36.905Z,768.00
2023-04-09T11:49:36.820Z,796.00
2023-04-09T11:50:36.745Z,836.00
2023-04-09T11:51:36.667Z,1544.00
2023-04-09T11:52:36.588Z,868.00
2023-04-09T11:53:36.516Z,788.00
2023-04-09T11:54:36.444Z,832.00
2023-04-09T11:55:36.360Z,936.00
2023-04-09T11:56:36.279Z,2720.00
2023-04-09T11:57:36.197Z,1652.00
2023-04-09T11:58:36.133Z,960.00
2023-04-09T11:59:36.042Z,932.00
2023-04-09T12:00:35.970Z,924.00
2023-04-09T12:01:35.944Z,908.00
2023-04-09T12:02:35.917Z,920.00
2023-04-09T12:03:35.802Z,944.00
2023-04-09T12:04:35.765Z,1004.00
2023-04-09T12:05:35.576Z,1020.00
2023-04-09T12:06:35.496Z,968.00
2023-04-09T12:07:35.423Z,972.00
2023-04-09T12:08:35.345Z,1056.00
2023-04-09T12:09:35.257Z,1104.00
2023-04-09T12:10:35.186Z,1736.00
2023-04-09T12:11:35.099Z,2292.00
2023-04-09T12:12:35.025Z,1124.00
2023-04-09T12:13:34.944Z,996.00
2023-04-09T12:14:34.866Z,972.00
2023-04-09T12:15:34.790Z,980.00
2023-04-09T12:16:34.758Z,1016.00
2023-04-09T12:17:34.680Z,2312.00
2023-04-09T12:18:34.637Z,2268.00
2023-04-09T12:19:34.475Z,2048.00
2023-04-09T12:20:34.405Z,2604.00
2023-04-09T12:21:34.320Z,1892.00
2023-04-09T12:22:34.243Z,2576.00
2023-04-09T12:23:34.166Z,2820.00
2023-04-09T12:24:34.093Z,2880.00
2023-04-09T12:25:34.007Z,2836.00
2023-04-09T12:26:33.926Z,2816.00
2023-04-09T12:27:34.029Z,2768.00
2023-04-09T12:28:33.777Z,2744.00
2023-04-09T12:29:33.691Z,2412.00
2023-04-09T12:30:33.619Z,2640.00
2023-04-09T12:31:33.545Z,2720.00
2023-04-09T12:32:33.519Z,2616.00
2023-04-09T12:33:33.377Z,2564.00
2023-04-09T12:34:33.306Z,2644.00
2023-04-09T12:35:33.240Z,1612.00
2023-04-09T12:36:33.187Z,2724.00
2023-04-09T12:37:33.066Z,2724.00